createdAt,value
2022-12-05T00:00:17.281Z,4.98
2022-12-05T00:02:39.447Z,4.94
2022-12-05T00:04:41.331Z,5.06
2022-12-05T00:06:44.005Z,5.30
2022-12-05T00:08:46.343Z,5.38
2022-12-05T00:10:48.121Z,5.07
2022-12-05T00:12:50.558Z,5.21
2022-12-05T00:14:52.382Z,5.11
2022-12-05T00:16:54.278Z,5.20
2022-12-05T00:18:59.211Z,5.26
2022-12-05T00:21:00.990Z,5.02
2022-12-05T00:23:02.859Z,5.11
2022-12-05T00:25:08.582Z,4.99
2022-12-05T00:27:10.343Z,5.05
2022-12-05T00:29:12.910Z,5.05
2022-12-05T00:31:17.449Z,4.96
2022-12-05T00:33:19.287Z,4.61
2022-12-05T00:35:21.088Z,4.83
2022-12-05T00:37:23.769Z,4.80
2022-12-05T00:39:25.563Z,4.92
2022-12-05T00:41:28.949Z,4.77
2022-12-05T00:43:31.785Z,4.86
2022-12-05T00:45:33.737Z,4.89
2022-12-05T00:47:36.500Z,5.00
2022-12-05T00:49:38.720Z,5.08
2022-12-05T00:51:43.364Z,5.14
2022-12-05T00:53:47.061Z,4.97
2022-12-05T00:55:49.234Z,4.90
2022-12-05T00:57:50.970Z,4.95
2022-12-05T00:59:53.116Z,4.82
2022-12-05T01:01:54.996Z,4.74
2022-12-05T01:03:58.963Z,5.12
2022-12-05T01:06:01.616Z,4.91
2022-12-05T01:08:03.488Z,4.77
2022-12-05T01:10:06.155Z,5.11
2022-12-05T01:12:08.331Z,5.28
2022-12-05T01:14:12.454Z,4.73
2022-12-05T01:16:23.572Z,4.79
2022-12-05T01:18:27.293Z,4.79
2022-12-05T01:20:29.146Z,4.87
2022-12-05T01:22:31.344Z,4.37
2022-12-05T01:24:33.127Z,4.78
2022-12-05T01:26:35.613Z,5.04
2022-12-05T01:28:37.707Z,4.86
2022-12-05T01:30:41.201Z,4.75
2022-12-05T01:32:43.462Z,4.70
2022-12-05T01:34:45.208Z,4.76
2022-12-05T01:36:47.599Z,4.63
2022-12-05T01:38:50.330Z,4.58
2022-12-05T01:41:00.730Z,4.78
2022-12-05T01:43:03.955Z,4.91
2022-12-05T01:45:15.054Z,4.67
2022-12-05T01:47:18.687Z,4.43
2022-12-05T01:49:27.813Z,4.41
2022-12-05T01:51:31.231Z,4.33
2022-12-05T01:53:33.960Z,4.55
2022-12-05T01:55:38.201Z,4.36
2022-12-05T01:57:41.428Z,4.54
2022-12-05T01:59:47.369Z,4.87
2022-12-05T02:01:49.902Z,4.95
2022-12-05T02:03:56.040Z,4.79
2022-12-05T02:05:58.920Z,4.74
2022-12-05T02:08:04.415Z,4.48
2022-12-05T02:10:07.199Z,4.61
2022-12-05T02:12:09.421Z,4.35
2022-12-05T02:14:21.904Z,4.58
2022-12-05T02:16:36.094Z,4.55
2022-12-05T02:18:49.443Z,4.73
2022-12-05T02:21:07.634Z,4.75
2022-12-05T02:24:00.989Z,4.36
2022-12-05T02:26:35.771Z,4.10
2022-12-05T02:29:03.527Z,4.56
2022-12-05T02:31:18.643Z,4.69
2022-12-05T02:33:44.537Z,4.90
2022-12-05T02:36:01.937Z,4.36
2022-12-05T02:38:12.789Z,4.75
2022-12-05T02:40:29.815Z,4.56
2022-12-05T02:42:45.746Z,4.46
2022-12-05T02:44:57.673Z,4.64
2022-12-05T02:47:00.929Z,4.70
2022-12-05T02:49:05.457Z,4.29
2022-12-05T02:51:09.605Z,4.45
2022-12-05T02:53:14.454Z,4.66
2022-12-05T02:55:19.066Z,4.73
2022-12-05T02:57:22.201Z,4.84
2022-12-05T02:59:24.571Z,4.87
2022-12-05T03:01:30.276Z,4.77
2022-12-05T03:03:33.574Z,5.00
2022-12-05T03:05:47.306Z,5.00
2022-12-05T03:07:52.587Z,5.03
2022-12-05T03:10:00.829Z,4.74
2022-12-05T03:12:11.697Z,4.80
2022-12-05T03:14:21.679Z,4.44
2022-12-05T03:16:33.050Z,4.58
2022-12-05T03:18:44.221Z,4.46
2022-12-05T03:20:57.330Z,4.23
2022-12-05T03:23:18.618Z,4.23
2022-12-05T03:25:25.455Z,4.56
2022-12-05T03:27:49.684Z,4.56
2022-12-05T03:30:14.562Z,5.04
2022-12-05T03:32:35.637Z,4.99
2022-12-05T03:34:46.182Z,5.09
2022-12-05T03:36:52.426Z,4.89
2022-12-05T03:39:02.165Z,4.68
2022-12-05T03:41:19.898Z,4.71
2022-12-05T03:43:27.591Z,5.08
2022-12-05T03:45:41.476Z,4.77
2022-12-05T03:48:02.591Z,5.09
2022-12-05T03:50:14.555Z,4.83
2022-12-05T03:52:27.458Z,4.93
2022-12-05T03:54:36.077Z,4.87
2022-12-05T03:56:46.245Z,4.91
2022-12-05T03:58:55.551Z,4.89
2022-12-05T04:01:01.528Z,4.77
2022-12-05T04:03:26.998Z,4.61
2022-12-05T04:05:49.866Z,4.53
2022-12-05T04:07:59.539Z,4.76
2022-12-05T04:10:12.308Z,4.63
2022-12-05T04:12:19.955Z,4.78
2022-12-05T04:14:31.119Z,4.54
2022-12-05T04:17:05.901Z,4.44
2022-12-05T04:20:04.326Z,5.03
2022-12-05T04:22:07.050Z,5.02
2022-12-05T04:24:42.686Z,4.84
2022-12-05T04:26:53.535Z,5.12
2022-12-05T04:29:02.719Z,4.79
2022-12-05T04:31:19.367Z,4.48
2022-12-05T04:33:41.006Z,4.80
2022-12-05T04:36:19.233Z,4.85
2022-12-05T04:38:30.059Z,5.07
2022-12-05T04:40:39.631Z,4.90
2022-12-05T04:42:43.175Z,5.23
2022-12-05T04:44:51.114Z,5.12
2022-12-05T04:46:56.962Z,5.08
2022-12-05T04:49:02.176Z,5.05
2022-12-05T04:51:06.340Z,4.64
2022-12-05T04:53:11.240Z,4.83
2022-12-05T04:55:20.659Z,4.95
2022-12-05T04:57:29.320Z,4.91
2022-12-05T04:59:31.319Z,4.72
2022-12-05T05:02:06.919Z,4.48
2022-12-05T05:04:15.002Z,4.93
2022-12-05T05:06:18.283Z,4.85
2022-12-05T05:08:25.865Z,4.33
2022-12-05T05:11:05.945Z,4.75
2022-12-05T05:13:07.781Z,4.74
2022-12-05T05:15:10.222Z,4.57
2022-12-05T05:17:12.077Z,4.64
2022-12-05T05:19:14.559Z,4.87
2022-12-05T05:21:28.526Z,4.94
2022-12-05T05:23:30.394Z,4.62
2022-12-05T05:25:32.642Z,4.91
2022-12-05T05:27:34.422Z,4.86
2022-12-05T05:29:36.206Z,4.72
2022-12-05T05:31:40.218Z,4.73
2022-12-05T05:33:42.514Z,5.04
2022-12-05T05:35:44.326Z,5.18
2022-12-05T05:37:46.494Z,5.15
2022-12-05T05:39:48.235Z,4.73
2022-12-05T05:41:50.065Z,4.79
2022-12-05T05:43:53.175Z,4.68
2022-12-05T05:45:55.073Z,4.64
2022-12-05T05:47:56.915Z,4.93
2022-12-05T05:49:59.306Z,4.79
2022-12-05T05:52:01.302Z,4.53
2022-12-05T05:54:03.179Z,4.78
2022-12-05T05:56:07.783Z,4.84
2022-12-05T05:58:09.706Z,4.51
2022-12-05T06:00:12.411Z,4.42
2022-12-05T06:02:14.425Z,4.37
2022-12-05T06:04:16.265Z,4.53
2022-12-05T06:06:19.987Z,4.53
2022-12-05T06:08:22.207Z,4.57
2022-12-05T06:10:24.074Z,4.39
2022-12-05T06:12:25.920Z,4.65
2022-12-05T06:14:28.025Z,4.57
2022-12-05T06:16:31.292Z,4.79
2022-12-05T06:18:34.051Z,4.72
2022-12-05T06:20:36.070Z,4.39
2022-12-05T06:22:37.850Z,4.43
2022-12-05T06:24:40.060Z,4.83
2022-12-05T06:26:42.166Z,4.78
2022-12-05T06:28:44.576Z,4.68
2022-12-05T06:30:47.235Z,4.76
2022-12-05T06:32:48.990Z,4.79
2022-12-05T06:34:50.741Z,4.74
2022-12-05T06:36:52.882Z,5.00
2022-12-05T06:38:54.636Z,4.98
2022-12-05T06:40:56.452Z,4.91
2022-12-05T06:42:58.672Z,4.64
2022-12-05T06:45:00.576Z,4.69
2022-12-05T06:47:02.689Z,4.88
2022-12-05T06:49:04.446Z,4.99
2022-12-05T06:51:10.033Z,5.00
2022-12-05T06:53:12.155Z,4.36
2022-12-05T06:55:13.970Z,4.81
2022-12-05T06:57:16.250Z,4.88
2022-12-05T06:59:18.141Z,4.68
2022-12-05T07:01:42.246Z,4.85
2022-12-05T07:03:44.774Z,4.88
2022-12-05T07:05:46.543Z,5.00
2022-12-05T07:07:48.602Z,5.19
2022-12-05T07:09:53.959Z,5.04
2022-12-05T07:11:55.753Z,5.11
2022-12-05T07:13:57.540Z,5.10
2022-12-05T07:16:00.257Z,5.06
2022-12-05T07:18:02.134Z,5.10
2022-12-05T07:20:04.987Z,5.09
2022-12-05T07:22:10.734Z,4.74
2022-12-05T07:24:17.053Z,5.13
2022-12-05T07:26:22.172Z,5.06
2022-12-05T07:28:25.023Z,5.09
2022-12-05T07:30:26.781Z,5.30
2022-12-05T07:32:33.423Z,5.21
2022-12-05T07:34:35.726Z,5.11
2022-12-05T07:36:37.669Z,5.20
2022-12-05T07:38:40.912Z,5.32
2022-12-05T07:40:43.066Z,5.17
2022-12-05T07:42:48.493Z,5.04
2022-12-05T07:44:50.285Z,5.17
2022-12-05T07:46:52.426Z,5.15
2022-12-05T07:48:55.001Z,5.08
2022-12-05T07:51:05.196Z,5.05
2022-12-05T07:53:07.328Z,4.75
2022-12-05T07:55:09.400Z,5.18
2022-12-05T07:57:11.560Z,5.14
2022-12-05T07:59:13.373Z,4.80
2022-12-05T08:01:21.459Z,4.99
2022-12-05T08:03:23.903Z,4.90
2022-12-05T08:05:25.689Z,4.98
2022-12-05T08:07:27.801Z,4.92
2022-12-05T08:09:29.682Z,5.02
2022-12-05T08:11:36.189Z,5.27
2022-12-05T08:13:38.269Z,5.01
2022-12-05T08:15:42.510Z,4.99
2022-12-05T08:17:44.653Z,5.02
2022-12-05T08:19:48.608Z,5.03
2022-12-05T08:21:52.486Z,4.92
2022-12-05T08:23:54.869Z,4.99
2022-12-05T08:25:56.790Z,5.04
2022-12-05T08:27:58.982Z,4.81
2022-12-05T08:30:00.930Z,4.94
2022-12-05T08:32:03.625Z,5.20
2022-12-05T08:34:05.902Z,5.26
2022-12-05T08:36:11.138Z,5.23
2022-12-05T08:38:13.290Z,4.83
2022-12-05T08:40:15.229Z,4.72
2022-12-05T08:42:17.443Z,5.22
2022-12-05T08:44:19.677Z,5.05
2022-12-05T08:46:21.922Z,4.87
2022-12-05T08:48:29.188Z,4.56
2022-12-05T08:50:33.573Z,5.00
2022-12-05T08:52:35.491Z,5.33
2022-12-05T08:54:37.771Z,5.37
2022-12-05T08:56:39.718Z,5.50
2022-12-05T08:58:41.911Z,5.42
2022-12-05T09:00:44.061Z,5.23
2022-12-05T09:02:52.114Z,5.07
2022-12-05T09:04:54.453Z,4.65
2022-12-05T09:06:56.858Z,4.93
2022-12-05T09:09:01.153Z,5.27
2022-12-05T09:11:21.348Z,5.04
2022-12-05T09:13:24.293Z,5.00
2022-12-05T09:15:26.532Z,4.70
2022-12-05T09:17:28.531Z,4.97
2022-12-05T09:19:31.128Z,5.10
2022-12-05T09:21:33.017Z,5.20
2022-12-05T09:23:35.728Z,4.93
2022-12-05T09:25:37.871Z,5.09
2022-12-05T09:27:39.890Z,4.84
2022-12-05T09:29:43.453Z,5.00
2022-12-05T09:31:47.711Z,5.07
2022-12-05T09:33:50.827Z,4.96
2022-12-05T09:35:53.185Z,4.93
2022-12-05T09:37:57.140Z,4.97
2022-12-05T09:39:58.989Z,5.33
2022-12-05T09:42:18.552Z,5.32
2022-12-05T09:44:58.363Z,5.65
2022-12-05T09:47:19.797Z,5.37
2022-12-05T09:49:24.852Z,5.19
2022-12-05T09:51:27.131Z,5.43
2022-12-05T09:53:34.716Z,5.36
2022-12-05T09:55:42.295Z,5.57
2022-12-05T09:57:54.026Z,5.89
2022-12-05T09:59:56.516Z,5.47
2022-12-05T10:02:24.338Z,5.18
2022-12-05T10:04:26.240Z,5.60
2022-12-05T10:06:37.870Z,5.39
2022-12-05T10:09:27.772Z,5.59
2022-12-05T10:11:39.201Z,5.74
2022-12-05T10:13:47.118Z,5.88
2022-12-05T10:15:57.578Z,5.69
2022-12-05T10:18:09.346Z,5.81
2022-12-05T10:20:18.641Z,5.88
2022-12-05T10:22:26.902Z,5.98
2022-12-05T10:24:33.923Z,5.68
2022-12-05T10:26:46.166Z,5.65
2022-12-05T10:29:33.954Z,5.61
2022-12-05T10:31:39.063Z,5.60
2022-12-05T10:33:47.428Z,5.65
2022-12-05T10:35:53.835Z,5.60
2022-12-05T10:38:00.265Z,5.83
2022-12-05T10:40:02.143Z,5.84
2022-12-05T10:42:05.316Z,6.14
2022-12-05T10:44:08.682Z,5.95
2022-12-05T10:46:17.411Z,5.65
2022-12-05T10:48:21.423Z,5.73
2022-12-05T10:50:23.584Z,5.86
2022-12-05T10:52:25.674Z,5.73
2022-12-05T10:54:39.252Z,5.75
2022-12-05T10:56:42.874Z,5.81
2022-12-05T10:58:54.628Z,5.92
2022-12-05T11:01:09.642Z,5.74
2022-12-05T11:03:32.390Z,5.71
2022-12-05T11:05:35.922Z,5.85
2022-12-05T11:07:48.571Z,5.88
2022-12-05T11:09:52.095Z,5.56
2022-12-05T11:12:00.601Z,5.55
2022-12-05T11:14:20.853Z,5.72
2022-12-05T11:16:25.583Z,5.85
2022-12-05T11:18:32.172Z,5.80
2022-12-05T11:20:39.385Z,5.36
2022-12-05T11:22:47.271Z,5.51
2022-12-05T11:24:50.453Z,5.64
2022-12-05T11:26:52.594Z,5.80
2022-12-05T11:28:55.261Z,5.66
2022-12-05T11:31:20.995Z,5.73
2022-12-05T11:33:25.932Z,5.77
2022-12-05T11:35:28.915Z,5.97
2022-12-05T11:37:38.295Z,5.93
2022-12-05T11:39:41.039Z,5.64
2022-12-05T11:42:13.412Z,5.99
2022-12-05T11:44:55.700Z,5.77
2022-12-05T11:47:21.190Z,5.95
2022-12-05T11:49:41.780Z,6.09
2022-12-05T11:52:05.622Z,5.82
2022-12-05T11:54:22.586Z,5.34
2022-12-05T11:57:03.888Z,5.69
2022-12-05T11:59:32.300Z,5.58
2022-12-05T12:01:48.381Z,5.49
2022-12-05T12:04:02.632Z,5.57
2022-12-05T12:06:31.463Z,5.69
2022-12-05T12:08:48.614Z,5.60
2022-12-05T12:11:11.408Z,5.66
2022-12-05T12:13:29.579Z,5.76
2022-12-05T12:16:08.944Z,5.89
2022-12-05T12:18:32.514Z,5.72
2022-12-05T12:20:37.169Z,5.96
2022-12-05T12:22:54.022Z,5.61
2022-12-05T12:25:03.333Z,5.87
2022-12-05T12:27:42.089Z,6.13
2022-12-05T12:30:02.323Z,5.85
2022-12-05T12:32:30.624Z,5.69
2022-12-05T12:34:38.839Z,5.81
2022-12-05T12:36:55.415Z,5.99
2022-12-05T12:39:08.389Z,6.06
2022-12-05T12:41:21.945Z,5.89
2022-12-05T12:43:59.334Z,5.96
2022-12-05T12:46:39.182Z,6.14
2022-12-05T12:48:40.989Z,6.10
2022-12-05T12:50:47.193Z,6.10
2022-12-05T12:53:07.007Z,5.85
2022-12-05T12:56:02.595Z,6.12
2022-12-05T12:58:11.951Z,6.35
2022-12-05T13:00:29.688Z,6.25
2022-12-05T13:02:49.752Z,6.24
2022-12-05T13:05:01.097Z,6.14
2022-12-05T13:07:19.149Z,5.91
2022-12-05T13:09:34.022Z,6.14
2022-12-05T13:11:40.227Z,6.37
2022-12-05T13:13:58.786Z,6.17
2022-12-05T13:16:06.171Z,5.98
2022-12-05T13:18:18.435Z,5.98
2022-12-05T13:20:25.395Z,6.11
2022-12-05T13:22:28.736Z,6.13
2022-12-05T13:24:30.572Z,6.31
2022-12-05T13:26:36.832Z,6.14
2022-12-05T13:28:54.803Z,6.14
2022-12-05T13:30:58.564Z,6.26
2022-12-05T13:33:07.190Z,6.18
2022-12-05T13:35:17.228Z,5.79
2022-12-05T13:37:40.695Z,5.88
2022-12-05T13:40:09.034Z,5.89
2022-12-05T13:42:29.261Z,5.88
2022-12-05T13:44:38.767Z,5.99
2022-12-05T13:46:43.467Z,5.80
2022-12-05T13:48:49.802Z,5.82
2022-12-05T13:50:57.703Z,5.88
2022-12-05T13:53:05.797Z,5.97
2022-12-05T13:55:38.299Z,6.27
2022-12-05T13:57:40.274Z,6.18
2022-12-05T14:00:01.679Z,6.10
2022-12-05T14:02:42.010Z,6.14
2022-12-05T14:04:50.910Z,5.92
2022-12-05T14:06:52.851Z,6.11
2022-12-05T14:08:55.324Z,6.17
2022-12-05T14:10:57.152Z,5.95
2022-12-05T14:13:01.258Z,6.01
2022-12-05T14:15:04.221Z,6.07
2022-12-05T14:17:08.246Z,6.21
2022-12-05T14:19:34.700Z,6.27
2022-12-05T14:21:53.168Z,6.18
2022-12-05T14:24:26.391Z,6.15
2022-12-05T14:27:16.710Z,5.70
2022-12-05T14:29:39.568Z,5.72
2022-12-05T14:31:43.237Z,5.77
2022-12-05T14:33:45.665Z,5.80
2022-12-05T14:35:53.355Z,5.76
2022-12-05T14:37:59.667Z,5.74
2022-12-05T14:40:23.532Z,5.75
2022-12-05T14:43:00.995Z,6.06
2022-12-05T14:45:24.377Z,6.04
2022-12-05T14:47:32.736Z,5.78
2022-12-05T14:49:52.530Z,6.05
2022-12-05T14:51:58.071Z,6.10
2022-12-05T14:54:12.187Z,5.85
2022-12-05T14:56:27.653Z,5.87
2022-12-05T14:58:35.974Z,6.02
2022-12-05T15:00:42.655Z,6.04
2022-12-05T15:02:52.095Z,5.80
2022-12-05T15:05:14.859Z,5.77
2022-12-05T15:07:23.059Z,5.89
2022-12-05T15:09:56.939Z,5.91
2022-12-05T15:11:59.100Z,5.88
2022-12-05T15:14:08.237Z,5.99
2022-12-05T15:16:19.539Z,5.74
2022-12-05T15:18:29.250Z,5.95
2022-12-05T15:20:43.815Z,6.01
2022-12-05T15:22:45.748Z,5.92
2022-12-05T15:24:48.054Z,5.79
2022-12-05T15:26:58.578Z,5.99
2022-12-05T15:29:02.442Z,5.99
2022-12-05T15:31:04.844Z,6.10
2022-12-05T15:33:12.798Z,5.91
2022-12-05T15:35:16.232Z,5.94
2022-12-05T15:37:55.810Z,6.10
2022-12-05T15:39:59.423Z,5.76
2022-12-05T15:42:01.633Z,5.90
2022-12-05T15:44:05.215Z,5.99
2022-12-05T15:46:27.585Z,5.87
2022-12-05T15:48:30.459Z,6.10
2022-12-05T15:50:42.711Z,5.94
2022-12-05T15:52:51.418Z,5.80
2022-12-05T15:54:54.568Z,6.12
2022-12-05T15:57:17.244Z,5.96
2022-12-05T15:59:28.956Z,5.92
2022-12-05T16:01:35.125Z,5.98
2022-12-05T16:03:42.513Z,6.00
2022-12-05T16:05:57.244Z,6.11
2022-12-05T16:08:02.940Z,6.21
2022-12-05T16:10:05.825Z,6.33
2022-12-05T16:12:33.873Z,6.42
2022-12-05T16:17:04.569Z,6.45
2022-12-05T16:19:18.323Z,6.44
2022-12-05T16:21:38.800Z,6.27
2022-12-05T16:23:44.531Z,6.26
2022-12-05T16:25:46.349Z,6.24
2022-12-05T16:28:19.050Z,6.16
2022-12-05T16:30:22.784Z,6.23
2022-12-05T16:32:25.719Z,6.38
2022-12-05T16:34:32.018Z,6.15
2022-12-05T16:36:35.066Z,6.16
2022-12-05T16:38:37.762Z,6.16
2022-12-05T16:40:51.209Z,6.27
2022-12-05T16:43:05.451Z,6.07
2022-12-05T16:45:44.561Z,6.08
2022-12-05T16:47:53.153Z,6.15
2022-12-05T16:49:55.168Z,6.02
2022-12-05T16:52:03.240Z,6.09
2022-12-05T16:54:05.474Z,6.15
2022-12-05T16:56:13.605Z,6.27
2022-12-05T16:58:30.078Z,6.07
2022-12-05T17:00:36.847Z,6.25
2022-12-05T17:02:38.662Z,6.01
2022-12-05T17:04:41.114Z,5.74
2022-12-05T17:06:43.352Z,5.82
2022-12-05T17:08:45.201Z,6.16
2022-12-05T17:10:49.180Z,6.18
2022-12-05T17:12:51.610Z,6.07
2022-12-05T17:14:53.638Z,5.90
2022-12-05T17:16:55.803Z,6.10
2022-12-05T17:18:57.682Z,6.12
2022-12-05T17:21:01.715Z,6.26
2022-12-05T17:23:04.623Z,6.22
2022-12-05T17:25:28.742Z,6.16
2022-12-05T17:27:31.033Z,6.22
2022-12-05T17:29:35.845Z,6.19
2022-12-05T17:31:39.105Z,6.33
2022-12-05T17:33:41.072Z,6.09
2022-12-05T17:35:47.262Z,6.05
2022-12-05T17:37:51.878Z,6.23
2022-12-05T17:39:53.795Z,6.35
2022-12-05T17:41:56.308Z,6.40
2022-12-05T17:43:58.738Z,6.03
2022-12-05T17:46:01.163Z,6.23
2022-12-05T17:48:03.498Z,6.22
2022-12-05T17:50:06.806Z,6.29
2022-12-05T17:52:24.832Z,6.35
2022-12-05T17:54:27.062Z,6.61
2022-12-05T17:56:28.885Z,6.44
2022-12-05T17:58:30.737Z,6.44
2022-12-05T18:00:32.951Z,6.48
2022-12-05T18:02:34.854Z,6.57
2022-12-05T18:04:37.119Z,6.50
2022-12-05T18:06:39.555Z,6.66
2022-12-05T18:08:43.994Z,6.65
2022-12-05T18:10:48.968Z,6.51
2022-12-05T18:12:51.417Z,6.48
2022-12-05T18:14:53.326Z,6.59
2022-12-05T18:16:55.228Z,6.51
2022-12-05T18:18:57.420Z,6.62
2022-12-05T18:21:10.946Z,6.45
2022-12-05T18:23:13.917Z,6.55
2022-12-05T18:25:16.019Z,6.63
2022-12-05T18:27:18.798Z,6.37
2022-12-05T18:29:20.984Z,6.57
2022-12-05T18:31:23.269Z,6.42
2022-12-05T18:33:25.580Z,6.47
2022-12-05T18:35:42.748Z,6.63
2022-12-05T18:37:44.650Z,6.70
2022-12-05T18:39:46.991Z,6.82
2022-12-05T18:41:48.804Z,6.54
2022-12-05T18:43:52.288Z,6.42
2022-12-05T18:45:59.171Z,6.58
2022-12-05T18:48:16.294Z,6.48
2022-12-05T18:50:23.271Z,6.65
2022-12-05T18:52:25.122Z,6.56
2022-12-05T18:54:27.346Z,6.57
2022-12-05T18:56:34.764Z,6.69
2022-12-05T18:58:37.551Z,6.54
2022-12-05T19:00:39.826Z,6.67
2022-12-05T19:02:41.966Z,6.73
2022-12-05T19:04:44.218Z,6.73
2022-12-05T19:06:52.990Z,6.73
2022-12-05T19:08:56.982Z,6.78
2022-12-05T19:11:04.911Z,6.51
2022-12-05T19:13:07.314Z,6.70
2022-12-05T19:15:09.696Z,6.85
2022-12-05T19:17:11.962Z,6.76
2022-12-05T19:19:14.745Z,6.68
2022-12-05T19:21:17.001Z,6.53
2022-12-05T19:23:20.471Z,6.68
2022-12-05T19:25:22.311Z,6.72
2022-12-05T19:27:24.559Z,6.66
2022-12-05T19:29:26.450Z,6.80
2022-12-05T19:31:29.441Z,6.65
2022-12-05T19:33:36.891Z,6.75
2022-12-05T19:35:38.718Z,6.89
2022-12-05T19:37:40.651Z,6.66
2022-12-05T19:39:43.398Z,6.63
2022-12-05T19:41:46.102Z,6.59
2022-12-05T19:43:48.091Z,6.72
2022-12-05T19:45:52.156Z,6.61
2022-12-05T19:47:55.382Z,6.63
2022-12-05T19:50:01.257Z,6.71
2022-12-05T19:52:03.379Z,6.55
2022-12-05T19:54:07.273Z,6.77
2022-12-05T19:56:16.465Z,6.85
2022-12-05T19:58:19.058Z,6.93
2022-12-05T20:00:21.612Z,6.77
2022-12-05T20:02:25.311Z,6.74
2022-12-05T20:04:28.806Z,6.85
2022-12-05T20:06:31.892Z,6.98
2022-12-05T20:08:37.389Z,6.60
2022-12-05T20:10:39.738Z,6.59
2022-12-05T20:12:42.846Z,6.74
2022-12-05T20:14:45.513Z,6.70
2022-12-05T20:16:47.730Z,6.67
2022-12-05T20:18:50.386Z,6.68
2022-12-05T20:20:59.827Z,6.74
2022-12-05T20:23:01.908Z,6.72
2022-12-05T20:25:04.478Z,6.71
2022-12-05T20:27:07.337Z,6.58
2022-12-05T20:29:09.712Z,6.72
2022-12-05T20:31:15.199Z,6.92
2022-12-05T20:33:17.198Z,6.89
2022-12-05T20:35:24.018Z,6.59
2022-12-05T20:37:28.768Z,6.77
2022-12-05T20:39:33.726Z,6.83
2022-12-05T20:41:35.757Z,6.85
2022-12-05T20:43:38.031Z,6.88
2022-12-05T20:45:40.363Z,6.78
2022-12-05T20:47:42.188Z,6.85
2022-12-05T20:49:44.463Z,6.84
2022-12-05T20:51:47.312Z,6.95
2022-12-05T20:53:49.610Z,6.82
2022-12-05T20:55:51.785Z,6.78
2022-12-05T20:57:53.544Z,6.82
2022-12-05T20:59:55.906Z,6.87
2022-12-05T21:01:57.871Z,6.97
2022-12-05T21:04:01.327Z,7.03
2022-12-05T21:06:10.213Z,6.88
2022-12-05T21:08:14.665Z,6.76
2022-12-05T21:10:17.113Z,6.87
2022-12-05T21:12:18.970Z,6.93
2022-12-05T21:14:21.202Z,7.02
2022-12-05T21:16:23.703Z,7.06
2022-12-05T21:18:25.819Z,6.96
2022-12-05T21:20:28.770Z,7.05
2022-12-05T21:22:30.898Z,6.96
2022-12-05T21:24:33.216Z,7.05
2022-12-05T21:26:39.036Z,6.90
2022-12-05T21:28:42.810Z,6.99
2022-12-05T21:30:45.084Z,7.05
2022-12-05T21:32:48.555Z,7.20
2022-12-05T21:34:50.711Z,7.20
2022-12-05T21:36:52.583Z,7.00
2022-12-05T21:38:56.533Z,6.94
2022-12-05T21:40:58.815Z,6.93
2022-12-05T21:43:00.570Z,6.98
2022-12-05T21:45:02.881Z,6.87
2022-12-05T21:47:05.834Z,7.13
2022-12-05T21:49:09.194Z,7.09
2022-12-05T21:51:11.771Z,7.27
2022-12-05T21:53:13.577Z,7.19
2022-12-05T21:55:16.262Z,7.31
2022-12-05T21:57:18.567Z,7.18
2022-12-05T21:59:20.747Z,7.11
2022-12-05T22:01:26.005Z,7.18
2022-12-05T22:03:28.188Z,7.20
2022-12-05T22:05:30.471Z,7.04
2022-12-05T22:07:32.308Z,6.99
2022-12-05T22:09:34.598Z,6.92
2022-12-05T22:11:36.654Z,7.14
2022-12-05T22:13:38.761Z,7.13
2022-12-05T22:15:41.187Z,7.20
2022-12-05T22:17:43.048Z,6.96
2022-12-05T22:19:46.327Z,6.98
2022-12-05T22:21:48.283Z,6.94
2022-12-05T22:23:50.627Z,7.25
2022-12-05T22:26:00.480Z,7.23
2022-12-05T22:28:02.339Z,7.39
2022-12-05T22:30:05.502Z,7.37
2022-12-05T22:32:07.387Z,7.07
2022-12-05T22:34:09.519Z,7.04
2022-12-05T22:36:13.318Z,7.09
2022-12-05T22:38:19.597Z,6.99
2022-12-05T22:40:21.750Z,7.19
2022-12-05T22:42:23.565Z,7.04
2022-12-05T22:44:25.722Z,7.06
2022-12-05T22:46:29.014Z,6.89
2022-12-05T22:48:30.982Z,7.09
2022-12-05T22:50:35.842Z,7.13
2022-12-05T22:52:37.679Z,7.14
2022-12-05T22:54:39.776Z,7.24
2022-12-05T22:56:41.541Z,6.96
2022-12-05T22:58:44.820Z,6.93
2022-12-05T23:00:46.563Z,7.10
2022-12-05T23:02:48.371Z,6.90
2022-12-05T23:04:50.631Z,7.19
2022-12-05T23:06:52.399Z,7.23
2022-12-05T23:08:54.822Z,6.97
2022-12-05T23:10:58.477Z,6.96
2022-12-05T23:13:00.277Z,7.13
2022-12-05T23:15:02.113Z,7.19
2022-12-05T23:17:04.263Z,6.95
2022-12-05T23:19:06.266Z,7.11
2022-12-05T23:21:08.066Z,7.03
2022-12-05T23:23:10.290Z,6.92
2022-12-05T23:25:12.133Z,6.99
2022-12-05T23:27:13.899Z,7.14
2022-12-05T23:29:16.225Z,7.26
2022-12-05T23:31:18.704Z,7.16
2022-12-05T23:33:20.497Z,7.09
2022-12-05T23:35:22.754Z,7.15
2022-12-05T23:37:24.694Z,7.05
2022-12-05T23:39:26.835Z,7.05
2022-12-05T23:41:28.739Z,7.14
2022-12-05T23:43:32.517Z,7.25
2022-12-05T23:45:34.638Z,7.15
2022-12-05T23:47:36.521Z,6.90
2022-12-05T23:49:38.639Z,7.18
2022-12-05T23:51:40.606Z,7.25
2022-12-05T23:53:44.472Z,7.22
2022-12-05T23:55:46.605Z,7.17
2022-12-05T23:57:48.383Z,7.09
2022-12-05T23:59:50.641Z,7.23
